createdAt,value
2018-03-31T00:01:00.429Z,3.00
2018-03-31T00:02:02.398Z,3.00
2018-03-31T00:03:04.409Z,3.00
2018-03-31T00:04:06.391Z,3.00
2018-03-31T00:05:08.398Z,3.00
2018-03-31T00:06:10.395Z,2.90
2018-03-31T00:07:12.378Z,2.90
2018-03-31T00:08:14.827Z,2.90
2018-03-31T00:09:16.817Z,2.90
2018-03-31T00:10:19.592Z,2.80
2018-03-31T00:11:21.744Z,2.80
2018-03-31T00:12:25.236Z,2.70
2018-03-31T00:13:27.260Z,2.70
2018-03-31T00:14:29.229Z,2.80
2018-03-31T00:15:31.226Z,2.80
2018-03-31T00:16:33.259Z,2.80
2018-03-31T00:17:35.328Z,2.80
2018-03-31T00:18:37.306Z,2.70
2018-03-31T00:19:40.070Z,2.70
2018-03-31T00:20:42.078Z,2.70
2018-03-31T00:21:44.101Z,2.70
2018-03-31T00:22:46.108Z,2.70
2018-03-31T00:23:48.118Z,2.70
2018-03-31T00:24:50.086Z,2.70
2018-03-31T00:25:52.148Z,2.60
2018-03-31T00:26:54.135Z,2.60
2018-03-31T00:27:56.913Z,2.60
2018-03-31T00:28:58.922Z,2.60
2018-03-31T00:30:00.920Z,2.60
2018-03-31T00:31:02.973Z,2.60
2018-03-31T00:32:04.983Z,2.60
2018-03-31T00:33:07.033Z,2.50
2018-03-31T00:34:09.842Z,2.50
2018-03-31T00:35:11.848Z,2.50
2018-03-31T00:36:13.855Z,2.50
2018-03-31T00:37:15.930Z,2.50
2018-03-31T00:38:17.903Z,2.50
2018-03-31T00:39:19.920Z,2.50
2018-03-31T00:40:22.040Z,2.40
2018-03-31T00:41:24.042Z,2.40
2018-03-31T00:42:26.011Z,2.40
2018-03-31T00:43:28.048Z,2.40
2018-03-31T00:44:30.028Z,2.40
2018-03-31T00:45:32.054Z,2.40
2018-03-31T00:46:34.034Z,2.30
2018-03-31T00:47:36.003Z,2.30
2018-03-31T00:48:38.101Z,2.30
2018-03-31T00:49:40.057Z,2.30
2018-03-31T00:50:42.123Z,2.30
2018-03-31T00:51:44.152Z,2.30
2018-03-31T00:52:46.125Z,2.30
2018-03-31T00:53:48.878Z,2.30
2018-03-31T00:54:50.851Z,2.30
2018-03-31T00:55:52.878Z,2.30
2018-03-31T00:56:54.918Z,2.20
2018-03-31T00:57:56.942Z,2.20
2018-03-31T00:58:58.974Z,2.20
2018-03-31T01:00:02.480Z,2.20
2018-03-31T01:01:05.210Z,2.20
2018-03-31T01:02:07.981Z,2.20
2018-03-31T01:03:10.048Z,2.20
2018-03-31T01:04:12.050Z,2.20
2018-03-31T01:05:14.087Z,2.20
2018-03-31T01:06:16.831Z,2.10
2018-03-31T01:07:19.601Z,2.10
2018-03-31T01:08:21.585Z,2.10
2018-03-31T01:09:23.681Z,2.10
2018-03-31T01:10:26.530Z,2.10
2018-03-31T01:11:28.552Z,2.10
2018-03-31T01:12:30.610Z,2.10
2018-03-31T01:13:32.585Z,2.10
2018-03-31T01:14:34.824Z,2.10
2018-03-31T01:15:36.859Z,2.10
2018-03-31T01:16:39.092Z,2.10
2018-03-31T01:17:41.100Z,2.10
2018-03-31T01:18:43.478Z,2.10
2018-03-31T01:19:46.236Z,2.00
2018-03-31T01:20:48.462Z,2.00
2018-03-31T01:21:50.451Z,2.00
2018-03-31T01:22:52.483Z,2.00
2018-03-31T01:23:54.629Z,2.00
2018-03-31T01:24:56.913Z,1.90
2018-03-31T01:25:59.121Z,2.00
2018-03-31T01:27:01.175Z,2.00
2018-03-31T01:28:03.226Z,1.90
2018-03-31T01:29:06.010Z,2.00
2018-03-31T01:30:08.071Z,2.00
2018-03-31T01:31:10.937Z,2.00
2018-03-31T01:32:13.153Z,2.00
2018-03-31T01:33:15.445Z,2.00
2018-03-31T01:34:18.187Z,1.90
2018-03-31T01:35:20.201Z,1.90
2018-03-31T01:36:22.651Z,1.90
2018-03-31T01:37:24.886Z,1.90
2018-03-31T01:38:27.162Z,1.90
2018-03-31T01:39:29.449Z,1.90
2018-03-31T01:40:31.525Z,1.90
2018-03-31T01:41:33.898Z,1.90
2018-03-31T01:42:36.858Z,1.80
2018-03-31T01:43:38.903Z,1.80
2018-03-31T01:44:40.963Z,1.80
2018-03-31T01:45:43.967Z,1.80
2018-03-31T01:46:46.051Z,1.80
2018-03-31T01:47:48.052Z,1.80
2018-03-31T01:48:50.142Z,1.70
2018-03-31T01:49:52.961Z,1.70
2018-03-31T01:50:55.023Z,1.70
2018-03-31T01:51:57.171Z,1.70
2018-03-31T01:52:59.219Z,1.70
2018-03-31T01:54:01.182Z,1.70
2018-03-31T01:55:03.249Z,1.70
2018-03-31T01:56:05.398Z,1.70
2018-03-31T01:57:07.549Z,1.70
2018-03-31T01:58:09.687Z,1.70
2018-03-31T01:59:11.680Z,1.70
2018-03-31T02:00:13.756Z,1.70
2018-03-31T02:01:15.797Z,1.70
2018-03-31T02:02:17.885Z,1.70
2018-03-31T02:03:20.683Z,1.70
2018-03-31T02:04:22.712Z,1.70
2018-03-31T02:05:24.716Z,1.70
2018-03-31T02:06:26.720Z,1.70
2018-03-31T02:07:28.707Z,1.60
2018-03-31T02:08:30.683Z,1.60
2018-03-31T02:09:33.446Z,1.60
2018-03-31T02:10:35.474Z,1.60
2018-03-31T02:11:37.839Z,1.60
2018-03-31T02:12:40.786Z,1.60
2018-03-31T02:13:43.689Z,1.60
2018-03-31T02:14:45.686Z,1.60
2018-03-31T02:15:47.737Z,1.60
2018-03-31T02:16:50.593Z,1.60
2018-03-31T02:17:52.595Z,1.60
2018-03-31T02:18:54.620Z,1.60
2018-03-31T02:19:56.642Z,1.50
2018-03-31T02:20:58.649Z,1.50
2018-03-31T02:22:00.635Z,1.60
2018-03-31T02:23:02.722Z,1.60
2018-03-31T02:24:04.768Z,1.50
2018-03-31T02:25:07.140Z,1.50
2018-03-31T02:26:09.305Z,1.50
2018-03-31T02:27:11.750Z,1.50
2018-03-31T02:28:14.614Z,1.50
2018-03-31T02:29:16.727Z,1.50
2018-03-31T02:30:21.300Z,1.50
2018-03-31T02:31:23.690Z,1.50
2018-03-31T02:32:26.495Z,1.50
2018-03-31T02:33:28.514Z,1.40
2018-03-31T02:34:31.180Z,1.40
2018-03-31T02:35:33.465Z,1.40
2018-03-31T02:36:35.608Z,1.50
2018-03-31T02:37:38.592Z,1.50
2018-03-31T02:38:41.290Z,1.50
2018-03-31T02:39:43.477Z,1.40
2018-03-31T02:40:45.626Z,1.40
2018-03-31T02:41:47.829Z,1.50
2018-03-31T02:42:50.708Z,1.40
2018-03-31T02:43:52.705Z,1.40
2018-03-31T02:44:54.735Z,1.50
2018-03-31T02:45:56.975Z,1.40
2018-03-31T02:46:59.108Z,1.40
2018-03-31T02:48:01.087Z,1.50
2018-03-31T02:49:03.056Z,1.50
2018-03-31T02:50:05.150Z,1.40
2018-03-31T02:51:07.135Z,1.40
2018-03-31T02:52:09.126Z,1.50
2018-03-31T02:53:11.120Z,1.40
2018-03-31T02:54:13.092Z,1.40
2018-03-31T02:55:15.067Z,1.40
2018-03-31T02:56:17.054Z,1.40
2018-03-31T02:57:19.815Z,1.40
2018-03-31T02:58:21.798Z,1.40
2018-03-31T02:59:23.835Z,1.40
2018-03-31T03:00:25.804Z,1.40
2018-03-31T03:01:27.865Z,1.40
2018-03-31T03:02:29.833Z,1.40
2018-03-31T03:03:31.816Z,1.40
2018-03-31T03:04:33.808Z,1.40
2018-03-31T03:05:35.802Z,1.40
2018-03-31T03:06:37.802Z,1.40
2018-03-31T03:07:40.566Z,1.30
2018-03-31T03:08:42.559Z,1.30
2018-03-31T03:09:44.535Z,1.30
2018-03-31T03:10:46.509Z,1.30
2018-03-31T03:11:48.509Z,1.30
2018-03-31T03:12:50.478Z,1.30
2018-03-31T03:13:52.483Z,1.30
2018-03-31T03:14:54.542Z,1.30
2018-03-31T03:15:56.511Z,1.30
2018-03-31T03:16:59.289Z,1.30
2018-03-31T03:18:01.268Z,1.30
2018-03-31T03:19:03.260Z,1.30
2018-03-31T03:20:05.268Z,1.30
2018-03-31T03:21:07.258Z,1.30
2018-03-31T03:22:09.244Z,1.30
2018-03-31T03:23:12.003Z,1.30
2018-03-31T03:24:13.965Z,1.30
2018-03-31T03:25:16.727Z,1.30
2018-03-31T03:26:20.059Z,1.20
2018-03-31T03:27:22.931Z,1.20
2018-03-31T03:28:24.916Z,1.30
2018-03-31T03:29:27.666Z,1.30
2018-03-31T03:30:29.668Z,1.30
2018-03-31T03:31:31.694Z,1.30
2018-03-31T03:32:33.692Z,1.30
2018-03-31T03:33:36.448Z,1.20
2018-03-31T03:34:38.450Z,1.20
2018-03-31T03:35:40.430Z,1.20
2018-03-31T03:36:42.408Z,1.20
2018-03-31T03:37:44.387Z,1.30
2018-03-31T03:38:46.357Z,1.30
2018-03-31T03:39:48.361Z,1.30
2018-03-31T03:40:50.714Z,1.30
2018-03-31T03:41:53.449Z,1.30
2018-03-31T03:42:55.437Z,1.30
2018-03-31T03:43:57.507Z,1.30
2018-03-31T03:44:59.507Z,1.40
2018-03-31T03:46:01.531Z,1.40
2018-03-31T03:47:03.528Z,1.40
2018-03-31T03:48:06.273Z,1.30
2018-03-31T03:49:09.033Z,1.30
2018-03-31T03:50:11.357Z,1.30
2018-03-31T03:51:13.382Z,1.30
2018-03-31T03:52:15.353Z,1.30
2018-03-31T03:53:17.330Z,1.30
2018-03-31T03:54:19.304Z,1.40
2018-03-31T03:55:21.307Z,1.40
2018-03-31T03:56:23.278Z,1.40
2018-03-31T03:57:26.041Z,1.40
2018-03-31T03:58:28.054Z,1.40
2018-03-31T04:00:30.998Z,1.40
2018-03-31T04:01:32.980Z,1.30
2018-03-31T04:02:34.970Z,1.40
2018-03-31T04:03:37.703Z,1.40
2018-03-31T04:04:40.447Z,1.40
2018-03-31T04:05:42.414Z,1.40
2018-03-31T04:06:44.378Z,1.30
2018-03-31T04:07:46.352Z,1.40
2018-03-31T04:08:49.119Z,1.40
2018-03-31T04:09:51.102Z,1.40
2018-03-31T04:10:53.869Z,1.40
2018-03-31T04:11:55.834Z,1.40
2018-03-31T04:12:57.879Z,1.40
2018-03-31T04:14:00.719Z,1.40
2018-03-31T04:15:02.713Z,1.40
2018-03-31T04:16:05.453Z,1.40
2018-03-31T04:17:08.395Z,1.40
2018-03-31T04:18:10.371Z,1.40
2018-03-31T04:19:12.343Z,1.40
2018-03-31T04:20:14.318Z,1.40
2018-03-31T04:21:17.095Z,1.50
2018-03-31T04:22:19.088Z,1.50
2018-03-31T04:23:21.077Z,1.50
2018-03-31T04:24:23.818Z,1.50
2018-03-31T04:25:25.837Z,1.50
2018-03-31T04:26:27.806Z,1.60
2018-03-31T04:27:29.834Z,1.60
2018-03-31T04:28:31.825Z,1.60
2018-03-31T04:29:33.794Z,1.50
2018-03-31T04:30:35.774Z,1.50
2018-03-31T04:31:37.769Z,1.50
2018-03-31T04:32:39.744Z,1.50
2018-03-31T04:33:42.522Z,1.50
2018-03-31T04:34:46.004Z,1.50
2018-03-31T04:35:48.753Z,1.50
2018-03-31T04:36:50.743Z,1.50
2018-03-31T04:37:53.559Z,1.50
2018-03-31T04:38:55.710Z,1.50
2018-03-31T04:39:57.743Z,1.50
2018-03-31T04:40:59.697Z,1.50
2018-03-31T04:42:01.692Z,1.40
2018-03-31T04:43:03.654Z,1.40
2018-03-31T04:44:06.413Z,1.40
2018-03-31T04:45:08.374Z,1.40
2018-03-31T04:46:10.335Z,1.40
2018-03-31T04:47:12.310Z,1.40
2018-03-31T04:48:15.054Z,1.40
2018-03-31T04:49:17.837Z,1.40
2018-03-31T04:50:19.829Z,1.40
2018-03-31T04:51:21.814Z,1.40
2018-03-31T04:52:24.688Z,1.40
2018-03-31T04:53:26.670Z,1.40
2018-03-31T04:54:28.682Z,1.50
2018-03-31T04:55:31.451Z,1.50
2018-03-31T04:56:33.427Z,1.50
2018-03-31T04:57:36.262Z,1.50
2018-03-31T04:58:39.004Z,1.50
2018-03-31T04:59:40.998Z,1.50
2018-03-31T05:01:52.964Z,1.50
2018-03-31T05:02:54.938Z,1.50
2018-03-31T05:03:56.918Z,1.50
2018-03-31T05:04:59.710Z,1.50
2018-03-31T05:06:01.681Z,1.50
2018-03-31T05:07:04.430Z,1.60
2018-03-31T05:08:06.420Z,1.60
2018-03-31T05:09:09.204Z,1.60
2018-03-31T05:10:11.184Z,1.60
2018-03-31T05:11:13.162Z,1.60
2018-03-31T05:12:15.156Z,1.60
2018-03-31T05:13:17.218Z,1.60
2018-03-31T05:14:19.325Z,1.60
2018-03-31T05:15:22.070Z,1.60
2018-03-31T05:16:24.109Z,1.60
2018-03-31T05:17:26.077Z,1.60
2018-03-31T05:18:28.801Z,1.60
2018-03-31T05:19:31.581Z,1.60
2018-03-31T05:20:33.554Z,1.60
2018-03-31T05:21:36.350Z,1.70
2018-03-31T05:22:38.318Z,1.70
2018-03-31T05:23:40.317Z,1.70
2018-03-31T05:24:43.061Z,1.70
2018-03-31T05:25:45.075Z,1.70
2018-03-31T05:26:47.046Z,1.70
2018-03-31T05:27:49.008Z,1.70
2018-03-31T05:28:51.160Z,1.70
2018-03-31T05:29:53.148Z,1.70
2018-03-31T05:30:55.164Z,1.70
2018-03-31T05:32:03.556Z,1.70
2018-03-31T05:33:05.542Z,1.80
2018-03-31T05:34:07.576Z,1.70
2018-03-31T05:35:09.581Z,1.80
2018-03-31T05:36:11.827Z,1.80
2018-03-31T05:37:13.820Z,1.80
2018-03-31T05:38:15.818Z,1.80
2018-03-31T05:39:17.817Z,1.80
2018-03-31T05:40:20.551Z,1.90
2018-03-31T05:41:22.541Z,1.80
2018-03-31T05:42:25.396Z,1.90
2018-03-31T05:43:27.394Z,1.90
2018-03-31T05:44:30.147Z,1.90
2018-03-31T05:45:32.151Z,1.90
2018-03-31T05:46:34.166Z,1.90
2018-03-31T05:47:36.143Z,1.90
2018-03-31T05:48:38.232Z,1.90
2018-03-31T05:49:40.248Z,1.90
2018-03-31T05:50:42.209Z,1.90
2018-03-31T05:51:44.961Z,1.90
2018-03-31T05:52:46.938Z,1.90
2018-03-31T05:53:49.706Z,1.90
2018-03-31T05:54:51.763Z,1.90
2018-03-31T05:55:53.820Z,2.00
2018-03-31T05:56:56.586Z,2.00
2018-03-31T05:57:58.566Z,2.00
2018-03-31T05:59:00.558Z,2.00
2018-03-31T06:00:02.580Z,2.10
2018-03-31T06:01:05.430Z,2.10
2018-03-31T06:02:07.443Z,2.10
2018-03-31T06:03:09.967Z,2.10
2018-03-31T06:04:11.941Z,2.10
2018-03-31T06:05:13.943Z,2.10
2018-03-31T06:06:15.908Z,2.10
2018-03-31T06:07:18.667Z,2.00
2018-03-31T06:08:20.674Z,2.00
2018-03-31T06:09:22.651Z,2.10
2018-03-31T06:10:25.475Z,2.10
2018-03-31T06:11:27.509Z,2.10
2018-03-31T06:12:30.257Z,2.10
2018-03-31T06:13:32.237Z,2.00
2018-03-31T06:14:34.992Z,2.00
2018-03-31T06:15:37.002Z,2.00
2018-03-31T06:16:39.806Z,2.00
2018-03-31T06:17:41.776Z,2.00
2018-03-31T06:18:43.753Z,2.00
2018-03-31T06:19:46.982Z,2.00
2018-03-31T06:20:48.993Z,2.00
2018-03-31T06:21:51.058Z,2.00
2018-03-31T06:22:53.041Z,2.10
2018-03-31T06:23:55.803Z,2.10
2018-03-31T06:24:57.778Z,2.10
2018-03-31T06:26:00.551Z,2.10
2018-03-31T06:27:02.553Z,2.10
2018-03-31T06:28:04.572Z,2.00
2018-03-31T06:29:06.550Z,2.10
2018-03-31T06:30:09.317Z,2.00
2018-03-31T06:31:11.293Z,2.00
2018-03-31T06:32:13.276Z,2.00
2018-03-31T06:33:15.251Z,2.00
2018-03-31T06:34:17.274Z,2.00
2018-03-31T06:35:19.264Z,2.00
2018-03-31T06:36:22.014Z,2.10
2018-03-31T06:37:24.037Z,2.10
2018-03-31T06:38:26.750Z,2.20
2018-03-31T06:39:28.740Z,2.20
2018-03-31T06:40:31.500Z,2.30
2018-03-31T06:41:33.488Z,2.30
2018-03-31T06:42:36.244Z,2.40
2018-03-31T06:43:38.318Z,2.40
2018-03-31T06:44:40.319Z,2.40
2018-03-31T06:45:42.307Z,2.50
2018-03-31T06:46:44.346Z,2.50
2018-03-31T06:47:47.046Z,2.50
2018-03-31T06:48:49.027Z,2.50
2018-03-31T06:49:51.800Z,2.50
2018-03-31T06:50:53.813Z,2.50
2018-03-31T06:51:55.986Z,2.50
2018-03-31T06:52:58.768Z,2.50
2018-03-31T06:54:01.560Z,2.50
2018-03-31T06:55:03.562Z,2.50
2018-03-31T06:56:06.297Z,2.60
2018-03-31T06:57:09.048Z,2.60
2018-03-31T06:58:11.190Z,2.60
2018-03-31T06:59:13.188Z,2.60
2018-03-31T07:00:15.159Z,2.60
2018-03-31T07:01:17.188Z,2.70
2018-03-31T07:02:19.962Z,2.80
2018-03-31T07:03:21.972Z,2.80
2018-03-31T07:04:23.963Z,2.80
2018-03-31T07:05:25.939Z,2.80
2018-03-31T07:06:29.429Z,2.90
2018-03-31T07:07:31.565Z,2.80
2018-03-31T07:08:33.534Z,2.90
2018-03-31T07:09:36.303Z,3.00
2018-03-31T07:10:38.271Z,3.00
2018-03-31T07:11:40.322Z,3.00
2018-03-31T07:12:42.402Z,3.00
2018-03-31T07:13:44.366Z,3.00
2018-03-31T07:14:46.414Z,3.10
2018-03-31T07:15:48.388Z,3.10
2018-03-31T07:16:50.362Z,3.10
2018-03-31T07:17:53.170Z,3.10
2018-03-31T07:18:55.156Z,3.10
2018-03-31T07:19:57.144Z,3.00
2018-03-31T07:20:59.221Z,3.00
2018-03-31T07:22:01.212Z,3.00
2018-03-31T07:23:03.200Z,3.00
2018-03-31T07:24:05.189Z,3.00
2018-03-31T07:25:07.947Z,2.90
2018-03-31T07:26:09.932Z,2.90
2018-03-31T07:27:12.669Z,2.90
2018-03-31T07:28:15.405Z,2.90
2018-03-31T07:29:17.404Z,2.90
2018-03-31T07:30:19.710Z,2.90
2018-03-31T07:31:21.910Z,2.90
2018-03-31T07:32:23.953Z,3.00
2018-03-31T07:33:25.939Z,3.00
2018-03-31T07:34:27.928Z,3.00
2018-03-31T07:35:29.943Z,3.00
2018-03-31T07:36:31.937Z,3.10
2018-03-31T07:37:33.950Z,3.10
2018-03-31T07:38:35.904Z,3.00
2018-03-31T07:39:37.890Z,3.00
2018-03-31T07:40:39.954Z,3.00
2018-03-31T07:41:41.910Z,3.00
2018-03-31T07:42:43.908Z,3.00
2018-03-31T07:43:45.910Z,3.00
2018-03-31T07:44:48.671Z,3.00
2018-03-31T07:45:50.664Z,3.00
2018-03-31T07:46:52.741Z,3.00
2018-03-31T07:47:54.792Z,3.00
2018-03-31T07:48:57.531Z,3.00
2018-03-31T07:49:59.508Z,3.00
2018-03-31T07:51:03.006Z,3.00
2018-03-31T07:52:05.131Z,3.00
2018-03-31T07:53:07.102Z,3.00
2018-03-31T07:54:09.189Z,2.90
2018-03-31T07:55:11.188Z,2.90
2018-03-31T07:56:13.293Z,2.90
2018-03-31T07:57:15.317Z,2.90
2018-03-31T07:58:17.324Z,2.90
2018-03-31T07:59:19.325Z,2.90
2018-03-31T08:00:21.389Z,3.00
2018-03-31T08:01:23.355Z,3.00
2018-03-31T08:02:25.357Z,3.10
2018-03-31T08:03:27.398Z,3.10
2018-03-31T08:04:29.405Z,3.10
2018-03-31T08:05:32.207Z,3.20
2018-03-31T08:06:34.946Z,3.20
2018-03-31T08:07:36.938Z,3.20
2018-03-31T08:08:40.502Z,3.30
2018-03-31T08:09:43.238Z,3.30
2018-03-31T08:10:45.235Z,3.30
2018-03-31T08:11:47.213Z,3.40
2018-03-31T08:12:49.371Z,3.40
2018-03-31T08:13:52.159Z,3.30
2018-03-31T08:14:54.149Z,3.30
2018-03-31T08:15:56.137Z,3.30
2018-03-31T08:16:58.990Z,3.40
2018-03-31T08:18:01.057Z,3.40
2018-03-31T08:19:03.052Z,3.30
2018-03-31T08:20:05.062Z,3.40
2018-03-31T08:21:07.039Z,3.30
2018-03-31T08:22:09.057Z,3.30
2018-03-31T08:23:11.570Z,3.40
2018-03-31T08:24:14.314Z,3.50
2018-03-31T08:25:16.341Z,3.40
2018-03-31T08:26:18.314Z,3.50
2018-03-31T08:27:21.226Z,3.60
2018-03-31T08:28:23.191Z,3.50
2018-03-31T08:29:25.176Z,3.60
2018-03-31T08:30:27.162Z,3.70
2018-03-31T08:31:29.172Z,3.80
2018-03-31T08:32:31.170Z,3.90
2018-03-31T08:33:33.122Z,3.90
2018-03-31T08:35:43.652Z,3.80
2018-03-31T08:36:45.755Z,3.80
2018-03-31T08:37:47.762Z,3.80
2018-03-31T08:38:49.743Z,3.80
2018-03-31T08:39:51.722Z,3.90
2018-03-31T08:40:53.715Z,3.90
2018-03-31T08:41:55.695Z,3.90
2018-03-31T08:42:58.450Z,4.00
2018-03-31T08:44:00.479Z,4.00
2018-03-31T08:45:02.519Z,4.00
2018-03-31T08:46:04.546Z,4.00
2018-03-31T08:47:06.635Z,4.00
2018-03-31T08:48:08.498Z,4.00
2018-03-31T08:49:11.251Z,3.90
2018-03-31T08:50:13.922Z,3.90
2018-03-31T08:51:15.926Z,3.90
2018-03-31T08:52:18.014Z,3.90
2018-03-31T08:53:20.209Z,3.90
2018-03-31T08:54:22.216Z,3.90
2018-03-31T08:55:24.980Z,3.90
2018-03-31T08:56:27.120Z,3.90
2018-03-31T08:57:29.202Z,3.90
2018-03-31T08:58:31.245Z,3.90
2018-03-31T08:59:33.243Z,3.90
2018-03-31T09:00:35.249Z,4.00
2018-03-31T09:01:37.275Z,4.00
2018-03-31T09:02:39.292Z,4.00
2018-03-31T09:03:41.302Z,3.90
2018-03-31T09:04:43.361Z,4.00
2018-03-31T09:05:45.335Z,3.90
2018-03-31T09:06:48.645Z,3.90
2018-03-31T09:07:51.555Z,3.80
2018-03-31T09:08:55.119Z,3.80
2018-03-31T09:09:57.094Z,3.80
2018-03-31T09:10:59.080Z,3.80
2018-03-31T09:12:01.072Z,3.80
2018-03-31T09:13:03.846Z,3.70
2018-03-31T09:14:05.854Z,3.70
2018-03-31T09:15:07.864Z,3.70
2018-03-31T09:16:09.867Z,3.60
2018-03-31T09:17:12.637Z,3.60
2018-03-31T09:18:14.611Z,3.60
2018-03-31T09:19:16.617Z,3.60
2018-03-31T09:20:18.630Z,3.60
2018-03-31T09:21:20.615Z,3.50
2018-03-31T09:22:22.611Z,3.50
2018-03-31T09:23:24.577Z,3.60
2018-03-31T09:24:26.599Z,3.60
2018-03-31T09:25:28.591Z,3.50
2018-03-31T09:26:31.357Z,3.50
2018-03-31T09:27:33.353Z,3.50
2018-03-31T09:28:35.329Z,3.50
2018-03-31T09:29:37.312Z,3.60
2018-03-31T09:30:39.314Z,3.60
2018-03-31T09:31:41.318Z,3.50
2018-03-31T09:32:43.291Z,3.50
2018-03-31T09:33:46.066Z,3.40
2018-03-31T09:34:48.037Z,3.40
2018-03-31T09:35:50.901Z,3.40
2018-03-31T09:36:52.909Z,3.40
2018-03-31T09:37:54.896Z,3.40
2018-03-31T09:38:57.075Z,3.40
2018-03-31T09:39:59.124Z,3.40
2018-03-31T09:41:01.079Z,3.50
2018-03-31T09:42:03.055Z,3.50
2018-03-31T09:43:05.056Z,3.50
2018-03-31T09:44:07.060Z,3.60
2018-03-31T09:45:09.856Z,3.60
2018-03-31T09:46:11.838Z,3.60
2018-03-31T09:47:14.579Z,3.60
2018-03-31T09:48:17.313Z,3.60
2018-03-31T09:49:20.104Z,3.60
2018-03-31T09:50:22.065Z,3.60
2018-03-31T09:51:24.066Z,3.60
2018-03-31T09:52:26.821Z,3.60
2018-03-31T09:53:28.818Z,3.60
2018-03-31T09:54:30.810Z,3.50
2018-03-31T09:55:33.565Z,3.40
2018-03-31T09:56:35.560Z,3.40
2018-03-31T09:57:38.338Z,3.30
2018-03-31T09:58:40.321Z,3.30
2018-03-31T09:59:42.301Z,3.30
2018-03-31T10:00:44.279Z,3.40
2018-03-31T10:01:46.358Z,3.40
2018-03-31T10:02:49.166Z,3.30
2018-03-31T10:03:51.161Z,3.30
2018-03-31T10:04:53.146Z,3.40
2018-03-31T10:05:55.120Z,3.40
2018-03-31T10:06:57.870Z,3.40
2018-03-31T10:07:59.869Z,3.40
2018-03-31T10:09:02.616Z,3.40
2018-03-31T10:10:05.525Z,3.40
2018-03-31T10:11:07.763Z,3.40
2018-03-31T10:12:09.866Z,3.40
2018-03-31T10:13:12.817Z,3.60
2018-03-31T10:14:14.847Z,3.60
2018-03-31T10:15:16.830Z,3.60
2018-03-31T10:16:19.590Z,3.80
2018-03-31T10:17:21.572Z,3.70
2018-03-31T10:18:23.592Z,3.80
2018-03-31T10:19:27.361Z,3.90
2018-03-31T10:20:29.348Z,3.90
2018-03-31T10:21:31.331Z,4.00
2018-03-31T10:22:33.351Z,4.00
2018-03-31T10:23:36.126Z,4.00
2018-03-31T10:24:38.340Z,4.00
2018-03-31T10:25:40.353Z,3.90
2018-03-31T10:26:43.091Z,3.90
2018-03-31T10:27:45.840Z,3.90
2018-03-31T10:28:47.881Z,3.90
2018-03-31T10:29:49.876Z,4.00
2018-03-31T10:30:51.864Z,4.00
2018-03-31T10:31:53.863Z,4.00
2018-03-31T10:32:55.918Z,4.10
2018-03-31T10:33:57.900Z,4.10
2018-03-31T10:35:00.677Z,4.10
2018-03-31T10:36:02.719Z,4.10
2018-03-31T10:37:04.790Z,4.10
2018-03-31T10:38:06.782Z,4.10
2018-03-31T10:39:09.542Z,4.10
2018-03-31T10:40:11.536Z,4.10
2018-03-31T10:41:13.590Z,4.10
2018-03-31T10:42:15.663Z,4.10
2018-03-31T10:43:18.526Z,4.10
2018-03-31T10:44:20.633Z,4.20
2018-03-31T10:45:22.697Z,4.20
2018-03-31T10:46:24.745Z,4.20
2018-03-31T10:47:27.655Z,4.20
2018-03-31T10:48:29.633Z,4.20
2018-03-31T10:49:31.660Z,4.20
2018-03-31T10:50:33.742Z,4.30
2018-03-31T10:51:35.754Z,4.30
2018-03-31T10:52:37.749Z,4.30
2018-03-31T10:53:40.520Z,4.30
2018-03-31T10:54:42.542Z,4.30
2018-03-31T10:55:44.572Z,4.40
2018-03-31T10:56:46.638Z,4.40
2018-03-31T10:57:48.663Z,4.40
2018-03-31T10:58:50.757Z,4.40
2018-03-31T10:59:52.809Z,4.50
2018-03-31T11:00:55.625Z,4.50
2018-03-31T11:01:57.627Z,4.60
2018-03-31T11:02:59.615Z,4.60
2018-03-31T11:04:01.694Z,4.60
2018-03-31T11:05:03.785Z,4.60
2018-03-31T11:06:05.857Z,4.70
2018-03-31T11:07:08.646Z,4.70
2018-03-31T11:08:10.651Z,4.70
2018-03-31T11:09:12.662Z,4.80
2018-03-31T11:10:14.693Z,4.80
2018-03-31T11:11:16.657Z,4.80
2018-03-31T11:12:19.449Z,4.90
2018-03-31T11:13:21.442Z,4.90
2018-03-31T11:14:23.460Z,4.90
2018-03-31T11:15:25.507Z,5.00
2018-03-31T11:16:28.979Z,5.00
2018-03-31T11:17:31.820Z,5.10
2018-03-31T11:18:33.862Z,5.10
2018-03-31T11:19:35.937Z,5.10
2018-03-31T11:20:37.944Z,5.10
2018-03-31T11:21:40.043Z,5.10
2018-03-31T11:22:42.078Z,5.20
2018-03-31T11:23:44.831Z,5.10
2018-03-31T11:24:46.864Z,5.10
2018-03-31T11:25:48.916Z,5.10
2018-03-31T11:26:50.889Z,5.20
2018-03-31T11:27:52.896Z,5.20
2018-03-31T11:28:54.895Z,5.20
2018-03-31T11:29:57.754Z,5.20
2018-03-31T11:30:59.758Z,5.20
2018-03-31T11:32:01.740Z,5.20
2018-03-31T11:33:03.708Z,5.20
2018-03-31T11:34:05.701Z,5.20
2018-03-31T11:35:07.699Z,5.20
2018-03-31T11:36:10.479Z,5.00
2018-03-31T11:37:12.470Z,5.00
2018-03-31T11:38:14.505Z,5.00
2018-03-31T11:39:16.533Z,5.00
2018-03-31T11:40:18.529Z,4.90
2018-03-31T11:41:20.894Z,4.90
2018-03-31T11:42:22.993Z,4.90
2018-03-31T11:43:24.963Z,4.90
2018-03-31T11:44:27.072Z,4.90
2018-03-31T11:45:29.115Z,4.90
2018-03-31T11:46:31.141Z,4.90
2018-03-31T11:47:33.138Z,4.90
2018-03-31T11:48:35.164Z,5.00
2018-03-31T11:49:37.215Z,5.00
2018-03-31T11:50:39.182Z,5.00
2018-03-31T11:51:41.262Z,5.10
2018-03-31T11:52:44.007Z,5.10
2018-03-31T11:53:46.150Z,5.10
2018-03-31T11:54:48.149Z,5.10
2018-03-31T11:55:50.869Z,5.10
2018-03-31T11:56:52.953Z,5.10
2018-03-31T11:57:54.954Z,5.10
2018-03-31T11:58:56.938Z,5.10
2018-03-31T11:59:58.914Z,5.10
2018-03-31T12:01:01.036Z,5.20
2018-03-31T12:02:03.061Z,5.10
2018-03-31T12:03:05.140Z,5.10
2018-03-31T12:04:07.129Z,5.10
2018-03-31T12:05:09.167Z,5.20
2018-03-31T12:06:11.947Z,5.10
2018-03-31T12:07:13.959Z,5.10
2018-03-31T12:08:15.994Z,5.10
2018-03-31T12:09:17.964Z,5.20
2018-03-31T12:10:19.949Z,5.20
2018-03-31T12:11:21.932Z,5.20
2018-03-31T12:12:23.959Z,5.20
2018-03-31T12:13:26.031Z,5.30
2018-03-31T12:14:28.048Z,5.30
2018-03-31T12:15:30.045Z,5.30
2018-03-31T12:16:32.831Z,5.40
2018-03-31T12:17:34.877Z,5.40
2018-03-31T12:18:37.635Z,5.50
2018-03-31T12:19:39.662Z,5.50
2018-03-31T12:20:41.678Z,5.60
2018-03-31T12:21:43.688Z,5.60
2018-03-31T12:22:45.743Z,5.60
2018-03-31T12:23:47.869Z,5.70
2018-03-31T12:24:49.894Z,5.70
2018-03-31T12:25:52.671Z,5.70
2018-03-31T12:26:54.682Z,5.70
2018-03-31T12:27:56.671Z,5.70
2018-03-31T12:28:59.437Z,5.80
2018-03-31T12:30:01.456Z,5.80
2018-03-31T12:31:03.589Z,5.80
2018-03-31T12:32:05.578Z,5.80
2018-03-31T12:33:07.681Z,5.80
2018-03-31T12:34:09.664Z,5.80
2018-03-31T12:35:12.402Z,5.80
2018-03-31T12:36:15.181Z,5.90
2018-03-31T12:37:17.159Z,5.80
2018-03-31T12:38:19.137Z,5.80
2018-03-31T12:39:21.157Z,5.90
2018-03-31T12:40:23.155Z,5.90
2018-03-31T12:41:27.006Z,5.90
2018-03-31T12:42:29.008Z,5.80
2018-03-31T12:43:31.007Z,5.80
2018-03-31T12:44:33.017Z,5.80
2018-03-31T12:45:35.028Z,5.80
2018-03-31T12:46:36.997Z,5.80
2018-03-31T12:47:39.012Z,5.90
2018-03-31T12:48:41.032Z,5.90
2018-03-31T12:49:43.781Z,5.90
2018-03-31T12:50:45.794Z,5.90
2018-03-31T12:51:47.803Z,5.90
2018-03-31T12:52:49.870Z,5.90
2018-03-31T12:53:51.944Z,6.00
2018-03-31T12:54:53.923Z,6.00
2018-03-31T12:55:55.903Z,6.00
2018-03-31T12:56:57.959Z,6.00
2018-03-31T12:58:01.459Z,6.10
2018-03-31T12:59:03.466Z,6.00
2018-03-31T13:00:05.560Z,6.00
2018-03-31T13:01:07.570Z,6.00
2018-03-31T13:02:09.595Z,6.00
2018-03-31T13:03:11.682Z,6.00
2018-03-31T13:04:13.723Z,6.00
2018-03-31T13:05:15.721Z,6.00
2018-03-31T13:06:18.707Z,5.90
2018-03-31T13:07:20.718Z,5.90
2018-03-31T13:08:22.712Z,6.00
2018-03-31T13:09:25.190Z,6.00
2018-03-31T13:10:28.688Z,6.00
2018-03-31T13:11:30.725Z,6.00
2018-03-31T13:12:32.781Z,6.00
2018-03-31T13:13:35.565Z,5.90
2018-03-31T13:14:37.670Z,5.90
2018-03-31T13:15:40.068Z,5.90
2018-03-31T13:16:42.811Z,5.90
2018-03-31T13:17:44.881Z,5.90
2018-03-31T13:18:46.902Z,5.90
2018-03-31T13:19:48.908Z,5.90
2018-03-31T13:20:50.880Z,5.90
2018-03-31T13:21:53.211Z,5.90
2018-03-31T13:22:55.266Z,5.90
2018-03-31T13:23:57.275Z,5.90
2018-03-31T13:25:00.165Z,5.90
2018-03-31T13:26:02.276Z,5.90
2018-03-31T13:27:04.261Z,5.90
2018-03-31T13:28:07.012Z,5.90
2018-03-31T13:29:09.043Z,5.90
2018-03-31T13:30:11.123Z,5.90
2018-03-31T13:31:13.154Z,6.00
2018-03-31T13:32:15.182Z,6.00
2018-03-31T13:33:17.318Z,6.10
2018-03-31T13:34:19.420Z,6.00
2018-03-31T13:35:21.408Z,6.00
2018-03-31T13:36:23.416Z,6.00
2018-03-31T13:37:26.205Z,6.00
2018-03-31T13:38:28.205Z,5.90
2018-03-31T13:39:30.208Z,6.00
2018-03-31T13:40:32.185Z,5.90
2018-03-31T13:41:34.966Z,6.10
2018-03-31T13:42:37.024Z,6.00
2018-03-31T13:43:39.007Z,6.10
2018-03-31T13:44:40.981Z,6.10
2018-03-31T13:45:43.742Z,6.10
2018-03-31T13:46:45.765Z,6.10
2018-03-31T13:47:47.826Z,6.20
2018-03-31T13:48:50.578Z,6.10
2018-03-31T13:49:52.595Z,6.10
2018-03-31T13:50:54.587Z,6.20
2018-03-31T13:51:57.923Z,6.20